Monroeville, Indiana
Current Conditions -  °F | °C
As of 11:54 PM on Monday 20 Oct 2014 (Local Time) from KFWA Reporting Station
Broken Clouds Broken Clouds  
Wind Chill: 51°   Ceiling: 7000
Heat Index: 51°   Visibility: 10mi
Dew Point: 45°   Wind: 6mph
Humidity: 80%   Direction: 290°WNW
Pressure: 29.94"   Gusts: NA
Location:  40.97°N, 84.87°W
Report Text: KFWA 210354Z 29005KT 10SM FEW045 BKN070 11/07 A2994 RMK AO2 SLP138 T01060072
Loading
Personal Weather Stations






























Interactive Weather Map
Tropical Storm Tracking
New forecast layout! Learn more

10-Day Weather Forecast

Advertisements
Track Severe Weather on mobile